Terminal Aerodrome Forecast
Issued by NWS

Home | Current Version | Previous Version | Graphics & Text | Print | Product List | Glossary On
Versions: 1 2 3 4 5 6 7 8 9 10 11 12 13 14 15 16 17
591
FTUS43 KABR 220539
TAFMBG
TAF
KMBG 220539Z 2206/2306 12015KT P6SM SCT070 OVC080
     FM221100 14019G27KT P6SM OVC050
     FM221400 15022G32KT P6SM OVC050
     FM230000 14016KT P6SM BKN250=

USA.gov is the U.S. government's official web portal to all federal, state and local government web resources and services.